createdAt,value
2022-11-06T00:03:34.802Z,6.20
2022-11-06T00:06:07.985Z,5.90
2022-11-06T00:08:18.791Z,5.90
2022-11-06T00:10:29.929Z,5.90
2022-11-06T00:12:41.623Z,5.70
2022-11-06T00:14:55.073Z,5.60
2022-11-06T00:16:59.087Z,5.80
2022-11-06T00:19:01.627Z,6.10
2022-11-06T00:21:10.224Z,6.10
2022-11-06T00:23:11.951Z,6.10
2022-11-06T00:25:13.647Z,6.30
2022-11-06T00:27:15.863Z,6.00
2022-11-06T00:29:17.744Z,5.90
2022-11-06T00:31:20.609Z,5.90
2022-11-06T00:33:26.241Z,5.70
2022-11-06T00:35:29.016Z,5.60
2022-11-06T00:37:30.768Z,5.40
2022-11-06T00:39:32.592Z,5.40
2022-11-06T00:41:34.328Z,5.50
2022-11-06T00:43:36.535Z,5.70
2022-11-06T00:45:38.545Z,5.60
2022-11-06T00:47:40.264Z,5.50
2022-11-06T00:49:41.980Z,5.40
2022-11-06T00:51:43.927Z,5.50
2022-11-06T00:53:46.015Z,5.40
2022-11-06T00:55:47.848Z,5.50
2022-11-06T00:57:49.949Z,5.60
2022-11-06T00:59:51.665Z,5.90
2022-11-06T01:01:53.494Z,5.90
2022-11-06T01:03:56.685Z,6.00
2022-11-06T01:06:06.110Z,5.80
2022-11-06T01:08:08.112Z,5.80
2022-11-06T01:10:09.923Z,5.90
2022-11-06T01:12:13.665Z,6.00
2022-11-06T01:14:16.940Z,6.00
2022-11-06T01:16:19.047Z,6.00
2022-11-06T01:18:20.801Z,5.90
2022-11-06T01:20:22.601Z,6.10
2022-11-06T01:22:24.694Z,5.90
2022-11-06T01:24:27.539Z,6.00
2022-11-06T01:26:38.343Z,5.70
2022-11-06T01:28:43.713Z,5.40
2022-11-06T01:30:45.420Z,5.20
2022-11-06T01:32:47.092Z,5.40
2022-11-06T01:34:49.663Z,5.40
2022-11-06T01:36:55.628Z,5.60
2022-11-06T01:39:01.703Z,5.80
2022-11-06T01:41:03.551Z,6.00
2022-11-06T01:43:08.694Z,5.80
2022-11-06T01:45:33.598Z,5.90
2022-11-06T01:47:35.365Z,5.70
2022-11-06T01:49:38.401Z,5.60
2022-11-06T01:51:58.215Z,5.50
2022-11-06T01:54:05.370Z,5.50
2022-11-06T01:56:15.526Z,5.60
2022-11-06T02:00:48.715Z,5.50
2022-11-06T02:02:54.764Z,5.70
2022-11-06T02:05:02.336Z,5.50
2022-11-06T02:07:07.692Z,5.60
2022-11-06T02:09:12.408Z,5.60
2022-11-06T02:11:24.096Z,5.60
2022-11-06T02:13:41.630Z,5.80
2022-11-06T02:15:46.776Z,5.70
2022-11-06T02:17:53.941Z,5.60
2022-11-06T02:20:40.323Z,5.30
2022-11-06T02:23:00.743Z,5.10
2022-11-06T02:25:02.521Z,5.10
2022-11-06T02:27:13.365Z,5.40
2022-11-06T02:29:26.259Z,5.50
2022-11-06T02:31:29.629Z,5.50
2022-11-06T02:33:39.374Z,5.10
2022-11-06T02:35:43.953Z,4.90
2022-11-06T02:37:46.975Z,5.20
2022-11-06T02:39:49.737Z,5.10
2022-11-06T02:41:53.252Z,5.10
2022-11-06T02:43:56.071Z,5.30
2022-11-06T02:45:59.850Z,5.10
2022-11-06T02:48:09.686Z,5.20
2022-11-06T02:50:19.994Z,5.20
2022-11-06T02:52:32.245Z,5.10
2022-11-06T02:54:45.307Z,5.00
2022-11-06T02:56:57.413Z,4.90
2022-11-06T02:59:15.457Z,4.90
2022-11-06T03:01:35.081Z,5.00
2022-11-06T03:03:47.381Z,5.00
2022-11-06T03:06:02.214Z,5.00
2022-11-06T03:08:10.277Z,5.10
2022-11-06T03:10:32.226Z,5.00
2022-11-06T03:12:34.411Z,5.00
2022-11-06T03:14:43.131Z,4.90
2022-11-06T03:16:51.125Z,4.80
2022-11-06T03:19:07.681Z,4.90
2022-11-06T03:21:22.303Z,4.80
2022-11-06T03:23:33.402Z,4.90
2022-11-06T03:26:00.848Z,4.70
2022-11-06T03:28:05.150Z,4.80
2022-11-06T03:30:16.677Z,4.90
2022-11-06T03:32:23.515Z,4.80
2022-11-06T03:34:49.475Z,4.80
2022-11-06T03:36:59.543Z,4.80
2022-11-06T03:39:05.507Z,4.80
2022-11-06T03:41:16.716Z,4.60
2022-11-06T03:43:20.433Z,4.70
2022-11-06T03:45:30.458Z,4.80
2022-11-06T03:47:34.257Z,4.70
2022-11-06T03:49:50.305Z,4.70
2022-11-06T03:52:07.213Z,4.80
2022-11-06T03:54:18.103Z,4.80
2022-11-06T03:56:22.783Z,4.80
2022-11-06T03:58:27.833Z,4.80
2022-11-06T04:00:34.098Z,4.80
2022-11-06T04:02:48.921Z,4.90
2022-11-06T04:05:00.570Z,4.70
2022-11-06T04:10:00.263Z,4.70
2022-11-06T04:12:23.253Z,4.80
2022-11-06T04:14:26.949Z,4.80
2022-11-06T04:16:39.160Z,4.90
2022-11-06T04:18:41.144Z,4.80
2022-11-06T04:21:13.609Z,4.70
2022-11-06T04:23:37.664Z,4.70
2022-11-06T04:26:14.834Z,4.60
2022-11-06T04:28:19.669Z,4.50
2022-11-06T04:30:28.186Z,4.60
2022-11-06T04:32:58.691Z,4.50
2022-11-06T04:37:37.910Z,4.40
2022-11-06T04:39:53.860Z,4.60
2022-11-06T04:42:09.259Z,4.80
2022-11-06T04:44:20.485Z,4.60
2022-11-06T04:46:28.591Z,4.40
2022-11-06T04:48:35.291Z,4.30
2022-11-06T04:50:46.213Z,4.40
2022-11-06T04:53:05.791Z,4.40
2022-11-06T04:55:15.961Z,4.30
2022-11-06T04:57:17.893Z,4.20
2022-11-06T04:59:20.201Z,4.10
2022-11-06T05:01:22.382Z,4.10
2022-11-06T05:03:24.368Z,4.30
2022-11-06T05:05:30.429Z,4.30
2022-11-06T05:07:36.526Z,4.20
2022-11-06T05:09:52.595Z,4.00
2022-11-06T05:12:22.484Z,4.00
2022-11-06T05:14:28.561Z,4.30
2022-11-06T05:16:52.125Z,4.30
2022-11-06T05:19:00.611Z,4.30
2022-11-06T05:23:54.182Z,3.80
2022-11-06T05:25:55.959Z,3.60
2022-11-06T05:27:58.186Z,3.80
2022-11-06T05:30:00.573Z,3.70
2022-11-06T05:32:02.392Z,3.60
2022-11-06T05:34:07.589Z,3.50
2022-11-06T05:36:20.175Z,3.60
2022-11-06T05:38:24.786Z,3.80
2022-11-06T05:40:26.682Z,4.00
2022-11-06T05:42:28.407Z,3.80
2022-11-06T05:44:34.150Z,4.00
2022-11-06T05:46:52.560Z,4.10
2022-11-06T05:48:54.342Z,4.00
2022-11-06T05:51:06.150Z,4.00
2022-11-06T05:53:08.078Z,4.20
2022-11-06T05:55:14.422Z,4.30
2022-11-06T05:57:19.293Z,4.20
2022-11-06T05:59:21.011Z,4.20
2022-11-06T06:01:39.695Z,4.20
2022-11-06T06:04:07.172Z,4.20
2022-11-06T06:06:09.018Z,4.10
2022-11-06T06:08:15.306Z,4.10
2022-11-06T06:10:19.493Z,4.20
2022-11-06T06:12:27.349Z,3.90
2022-11-06T06:14:35.193Z,3.60
2022-11-06T06:16:36.939Z,3.40
2022-11-06T06:18:43.193Z,3.30
2022-11-06T06:20:50.431Z,3.10
2022-11-06T06:22:59.126Z,3.30
2022-11-06T06:25:02.809Z,3.60
2022-11-06T06:27:07.121Z,3.90
2022-11-06T06:29:14.147Z,3.50
2022-11-06T06:31:16.122Z,3.50
2022-11-06T06:33:17.865Z,3.60
2022-11-06T06:35:23.158Z,3.30
2022-11-06T06:37:26.270Z,3.70
2022-11-06T06:39:28.027Z,3.90
2022-11-06T06:41:35.040Z,4.10
2022-11-06T06:43:39.687Z,4.30
2022-11-06T06:45:41.508Z,4.20
2022-11-06T06:48:13.989Z,4.10
2022-11-06T06:50:49.923Z,3.60
2022-11-06T06:53:21.379Z,3.40
2022-11-06T06:55:30.646Z,3.10
2022-11-06T06:57:40.255Z,3.30
2022-11-06T06:59:44.468Z,3.70
2022-11-06T07:01:55.185Z,3.60
2022-11-06T07:04:04.730Z,3.80
2022-11-06T07:08:23.005Z,3.90
2022-11-06T07:10:30.670Z,4.00
2022-11-06T07:12:32.480Z,4.10
2022-11-06T07:14:35.641Z,4.20
2022-11-06T07:16:37.290Z,4.30
2022-11-06T07:18:39.620Z,4.20
2022-11-06T07:20:42.252Z,4.00
2022-11-06T07:22:44.290Z,3.90
2022-11-06T07:24:45.844Z,3.90
2022-11-06T07:26:47.436Z,4.00
2022-11-06T07:28:49.041Z,3.90
2022-11-06T07:30:50.671Z,3.80
2022-11-06T07:32:53.352Z,3.80
2022-11-06T07:34:55.265Z,3.80
2022-11-06T07:36:56.913Z,3.70
2022-11-06T07:38:58.549Z,3.80
2022-11-06T07:41:04.453Z,3.80
2022-11-06T07:43:07.252Z,4.00
2022-11-06T07:45:09.179Z,4.10
2022-11-06T07:47:10.821Z,4.00
2022-11-06T07:49:12.438Z,4.10
2022-11-06T07:51:14.072Z,4.00
2022-11-06T07:53:16.815Z,4.30
2022-11-06T07:55:19.677Z,4.30
2022-11-06T07:57:21.440Z,4.20
2022-11-06T07:59:23.078Z,4.30
2022-11-06T08:01:24.835Z,4.20
2022-11-06T08:03:27.117Z,4.30
2022-11-06T08:05:28.881Z,4.30
2022-11-06T08:07:30.686Z,4.20
2022-11-06T08:09:32.356Z,4.20
2022-11-06T08:11:33.919Z,4.30
2022-11-06T08:13:36.007Z,4.20
2022-11-06T08:15:38.538Z,4.40
2022-11-06T08:17:40.261Z,4.40
2022-11-06T08:19:44.858Z,4.20
2022-11-06T08:21:46.472Z,4.20
2022-11-06T08:23:49.207Z,4.40
2022-11-06T08:25:53.383Z,4.40
2022-11-06T08:27:58.556Z,4.60
2022-11-06T08:30:00.149Z,4.60
2022-11-06T08:32:01.809Z,4.70
2022-11-06T08:34:03.398Z,4.80
2022-11-06T08:36:05.515Z,4.90
2022-11-06T08:38:07.127Z,5.20
2022-11-06T08:40:09.205Z,5.10
2022-11-06T08:42:10.832Z,5.00
2022-11-06T08:44:12.487Z,4.90
2022-11-06T08:46:14.834Z,4.90
2022-11-06T08:48:16.449Z,4.80
2022-11-06T08:50:18.128Z,5.00
2022-11-06T08:52:19.896Z,4.70
2022-11-06T08:54:21.498Z,4.60
2022-11-06T08:56:23.186Z,4.80
2022-11-06T08:58:24.823Z,5.20
2022-11-06T09:00:26.985Z,5.30
2022-11-06T09:02:28.788Z,5.10
2022-11-06T09:04:30.467Z,5.10
2022-11-06T09:06:32.086Z,5.20
2022-11-06T09:08:33.753Z,5.10
2022-11-06T09:10:36.397Z,5.50
2022-11-06T09:12:38.070Z,5.90
2022-11-06T09:14:40.184Z,5.90
2022-11-06T09:16:41.822Z,5.80
2022-11-06T09:18:43.861Z,6.30
2022-11-06T09:20:45.523Z,6.20
2022-11-06T09:22:47.538Z,6.20
2022-11-06T09:25:03.057Z,6.10
2022-11-06T09:27:05.869Z,5.90
2022-11-06T09:29:07.526Z,5.90
2022-11-06T09:31:09.489Z,6.30
2022-11-06T09:33:13.708Z,6.20
2022-11-06T09:35:15.748Z,6.10
2022-11-06T09:37:17.528Z,6.50
2022-11-06T09:39:19.221Z,6.70
2022-11-06T09:41:23.391Z,6.60
2022-11-06T09:44:03.616Z,6.70
2022-11-06T09:45:59.715Z,6.90
2022-11-06T09:48:11.169Z,6.70
2022-11-06T09:50:17.565Z,6.70
2022-11-06T09:52:38.471Z,6.90
2022-11-06T09:54:43.488Z,7.20
2022-11-06T09:56:47.590Z,7.60
2022-11-06T09:58:49.469Z,7.70
2022-11-06T10:00:52.472Z,7.70
2022-11-06T10:03:03.768Z,7.40
2022-11-06T10:05:05.402Z,7.40
2022-11-06T10:07:33.639Z,7.60
2022-11-06T10:09:35.248Z,7.60
2022-11-06T10:11:40.606Z,8.00
2022-11-06T10:13:54.466Z,8.30
2022-11-06T10:16:18.846Z,8.40
2022-11-06T10:18:32.900Z,8.70
2022-11-06T10:20:39.235Z,8.70
2022-11-06T10:22:41.829Z,9.00
2022-11-06T10:24:48.010Z,9.20
2022-11-06T10:26:52.894Z,9.30
2022-11-06T10:29:13.141Z,9.30
2022-11-06T10:31:27.088Z,9.30
2022-11-06T10:33:31.864Z,9.40
2022-11-06T10:35:33.571Z,9.70
2022-11-06T10:37:47.558Z,9.70
2022-11-06T10:39:49.623Z,9.70
2022-11-06T10:41:56.587Z,9.90
2022-11-06T10:44:02.501Z,10.10
2022-11-06T10:46:33.412Z,10.20
2022-11-06T10:48:41.534Z,10.30
2022-11-06T10:50:50.676Z,10.30
2022-11-06T10:52:57.411Z,10.60
2022-11-06T10:55:09.818Z,10.90
2022-11-06T10:57:24.847Z,10.60
2022-11-06T10:59:27.136Z,10.60
2022-11-06T11:01:28.943Z,10.60
2022-11-06T11:03:39.848Z,10.80
2022-11-06T11:05:42.517Z,10.80
2022-11-06T11:07:45.961Z,10.80
2022-11-06T11:09:50.653Z,10.60
2022-11-06T11:11:52.334Z,10.20
2022-11-06T11:13:56.961Z,10.20
2022-11-06T11:15:58.839Z,10.40
2022-11-06T11:18:12.653Z,10.00
2022-11-06T11:20:29.355Z,10.20
2022-11-06T11:22:33.275Z,10.50
2022-11-06T11:24:35.232Z,10.30
2022-11-06T11:26:43.036Z,10.40
2022-11-06T11:28:49.635Z,10.70
2022-11-06T11:31:06.705Z,10.90
2022-11-06T11:33:14.755Z,10.90
2022-11-06T11:35:19.278Z,11.20
2022-11-06T11:37:38.825Z,11.50
2022-11-06T11:39:43.524Z,11.90
2022-11-06T11:41:45.220Z,12.00
2022-11-06T11:43:57.338Z,12.00
2022-11-06T11:46:14.870Z,12.00
2022-11-06T11:48:16.944Z,12.00
2022-11-06T11:50:24.391Z,12.00
2022-11-06T11:52:26.067Z,12.20
2022-11-06T11:54:32.202Z,11.70
2022-11-06T11:57:04.026Z,11.70
2022-11-06T11:58:58.315Z,11.90
2022-11-06T12:01:01.534Z,12.40
2022-11-06T12:03:07.373Z,12.90
2022-11-06T12:05:13.731Z,13.40
2022-11-06T12:07:35.595Z,12.90
2022-11-06T12:09:44.714Z,13.40
2022-11-06T12:11:47.254Z,13.60
2022-11-06T12:14:09.802Z,13.80
2022-11-06T12:16:16.278Z,14.00
2022-11-06T12:18:20.110Z,14.00
2022-11-06T12:20:31.175Z,14.20
2022-11-06T12:22:39.511Z,14.30
2022-11-06T12:24:51.349Z,14.30
2022-11-06T12:27:04.786Z,14.40
2022-11-06T12:29:08.729Z,14.40
2022-11-06T12:31:16.198Z,14.50
2022-11-06T12:33:20.706Z,14.70
2022-11-06T12:35:32.468Z,14.90
2022-11-06T12:37:46.615Z,15.10
2022-11-06T12:39:58.304Z,15.50
2022-11-06T12:42:03.031Z,15.40
2022-11-06T12:44:09.356Z,15.30
2022-11-06T12:46:13.951Z,15.50
2022-11-06T12:48:22.737Z,15.60
2022-11-06T12:50:33.668Z,15.70
2022-11-06T12:52:45.554Z,15.30
2022-11-06T12:54:50.240Z,14.50
2022-11-06T12:56:58.088Z,14.20
2022-11-06T12:59:12.498Z,13.90
2022-11-06T13:01:29.696Z,13.80
2022-11-06T13:03:51.743Z,14.00
2022-11-06T13:06:01.596Z,14.10
2022-11-06T13:08:03.416Z,14.00
2022-11-06T13:10:24.068Z,13.50
2022-11-06T13:12:46.140Z,13.50
2022-11-06T13:14:53.513Z,13.60
2022-11-06T13:17:07.605Z,13.40
2022-11-06T13:19:29.533Z,13.60
2022-11-06T13:21:57.561Z,13.60
2022-11-06T13:24:02.908Z,13.60
2022-11-06T13:26:04.503Z,13.60
2022-11-06T13:28:15.523Z,13.40
2022-11-06T13:30:18.582Z,13.00
2022-11-06T13:32:21.709Z,13.10
2022-11-06T13:34:26.449Z,13.00
2022-11-06T13:36:29.001Z,13.00
2022-11-06T13:38:34.632Z,12.90
2022-11-06T13:40:39.699Z,12.90
2022-11-06T13:42:44.994Z,12.80
2022-11-06T13:44:46.969Z,12.80
2022-11-06T13:46:52.701Z,12.40
2022-11-06T13:49:09.580Z,12.20
2022-11-06T13:51:14.196Z,12.10
2022-11-06T13:53:24.944Z,12.10
2022-11-06T13:55:44.020Z,12.20
2022-11-06T13:58:04.229Z,12.10
2022-11-06T14:00:15.256Z,12.20
2022-11-06T14:02:49.348Z,12.10
2022-11-06T14:04:53.580Z,12.00
2022-11-06T14:06:56.952Z,11.90
2022-11-06T14:09:00.352Z,11.90
2022-11-06T14:11:05.450Z,11.80
2022-11-06T14:13:08.624Z,11.80
2022-11-06T14:15:15.267Z,11.80
2022-11-06T14:17:16.899Z,11.80
2022-11-06T14:19:21.467Z,11.70
2022-11-06T14:21:26.045Z,11.60
2022-11-06T14:23:30.605Z,11.60
2022-11-06T14:25:32.559Z,11.50
2022-11-06T14:27:54.444Z,11.50
2022-11-06T14:29:59.080Z,11.40
2022-11-06T14:32:03.734Z,11.30
2022-11-06T14:34:25.256Z,11.30
2022-11-06T14:36:26.907Z,11.20
2022-11-06T14:38:28.458Z,11.20
2022-11-06T14:40:32.972Z,11.10
2022-11-06T14:42:34.562Z,11.00
2022-11-06T14:44:41.243Z,11.00
2022-11-06T14:46:49.515Z,11.00
2022-11-06T14:48:53.660Z,10.90
2022-11-06T14:50:55.763Z,10.80
2022-11-06T14:53:02.123Z,10.70
2022-11-06T14:55:05.919Z,10.70
2022-11-06T14:57:10.754Z,10.70
2022-11-06T14:59:20.681Z,10.60
2022-11-06T15:01:29.890Z,10.60
2022-11-06T15:03:40.678Z,10.50
2022-11-06T15:05:42.861Z,10.50
2022-11-06T15:08:04.412Z,10.40
2022-11-06T15:10:26.326Z,10.40
2022-11-06T15:12:50.641Z,10.40
2022-11-06T15:14:54.022Z,10.30
2022-11-06T15:17:00.412Z,10.30
2022-11-06T15:19:03.751Z,10.30
2022-11-06T15:21:07.964Z,10.20
2022-11-06T15:23:28.010Z,10.00
2022-11-06T15:25:29.847Z,10.00
2022-11-06T15:27:36.835Z,10.10
2022-11-06T15:29:42.690Z,10.10
2022-11-06T15:31:45.895Z,10.00
2022-11-06T15:33:55.543Z,9.90
2022-11-06T15:36:01.521Z,9.90
2022-11-06T15:38:14.820Z,9.90
2022-11-06T15:40:24.109Z,9.90
2022-11-06T15:42:27.384Z,10.00
2022-11-06T15:44:29.072Z,9.90
2022-11-06T15:46:30.729Z,9.60
2022-11-06T15:48:32.357Z,9.60
2022-11-06T15:50:34.948Z,9.60
2022-11-06T15:52:36.574Z,9.60
2022-11-06T15:54:38.206Z,9.40
2022-11-06T15:56:40.114Z,9.30
2022-11-06T15:58:41.849Z,9.20
2022-11-06T16:00:43.765Z,9.10
2022-11-06T16:02:49.518Z,9.10
2022-11-06T16:04:51.561Z,9.10
2022-11-06T16:06:54.643Z,9.10
2022-11-06T16:08:56.663Z,9.10
2022-11-06T16:10:58.768Z,9.10
2022-11-06T16:13:01.745Z,9.10
2022-11-06T16:15:03.554Z,9.10
2022-11-06T16:17:10.674Z,9.00
2022-11-06T16:19:24.455Z,9.00
2022-11-06T16:21:29.590Z,8.90
2022-11-06T16:23:38.647Z,8.90
2022-11-06T16:25:40.786Z,9.00
2022-11-06T16:27:42.456Z,9.00
2022-11-06T16:30:01.009Z,9.00
2022-11-06T16:32:07.032Z,8.90
2022-11-06T16:34:32.495Z,8.90
2022-11-06T16:36:57.879Z,8.90
2022-11-06T16:39:17.596Z,9.00
2022-11-06T16:41:38.102Z,9.00
2022-11-06T16:43:39.863Z,9.10
2022-11-06T16:45:51.976Z,9.00
2022-11-06T16:48:05.716Z,9.00
2022-11-06T16:50:27.276Z,9.00
2022-11-06T16:52:28.850Z,9.10
2022-11-06T16:54:32.380Z,9.10
2022-11-06T16:56:34.629Z,9.10
2022-11-06T16:58:55.418Z,9.20
2022-11-06T17:00:58.979Z,9.20
2022-11-06T17:03:05.501Z,9.20
2022-11-06T17:05:08.881Z,9.20
2022-11-06T17:07:17.398Z,9.20
2022-11-06T17:09:25.002Z,9.20
2022-11-06T17:11:26.697Z,9.20
2022-11-06T17:13:31.407Z,9.20
2022-11-06T17:15:33.045Z,9.20
2022-11-06T17:17:39.788Z,9.20
2022-11-06T17:19:41.592Z,9.10
2022-11-06T17:21:43.332Z,9.10
2022-11-06T17:23:45.468Z,9.00
2022-11-06T17:25:47.585Z,9.00
2022-11-06T17:27:49.218Z,9.00
2022-11-06T17:29:51.572Z,9.00
2022-11-06T17:31:53.157Z,9.00
2022-11-06T17:33:54.868Z,9.00
2022-11-06T17:35:56.539Z,9.10
2022-11-06T17:38:00.919Z,9.00
2022-11-06T17:40:06.467Z,9.00
2022-11-06T17:42:08.091Z,8.90
2022-11-06T17:44:11.186Z,8.90
2022-11-06T17:46:13.382Z,8.90
2022-11-06T17:48:15.417Z,9.00
2022-11-06T17:50:17.111Z,8.90
2022-11-06T17:52:18.808Z,8.90
2022-11-06T17:54:22.145Z,8.90
2022-11-06T17:56:23.702Z,8.90
2022-11-06T17:58:25.359Z,8.80
2022-11-06T18:00:26.998Z,8.90
2022-11-06T18:02:54.905Z,8.90
2022-11-06T18:04:51.227Z,8.80
2022-11-06T18:06:53.425Z,8.90
2022-11-06T18:08:58.174Z,8.90
2022-11-06T18:10:59.742Z,8.80
2022-11-06T18:13:01.324Z,8.80
2022-11-06T18:15:02.986Z,8.70
2022-11-06T18:17:04.683Z,8.70
2022-11-06T18:19:09.325Z,8.70
2022-11-06T18:21:10.957Z,8.70
2022-11-06T18:23:13.173Z,8.80
2022-11-06T18:25:15.022Z,8.70
2022-11-06T18:27:16.655Z,8.70
2022-11-06T18:29:18.598Z,8.60
2022-11-06T18:31:20.598Z,8.60
2022-11-06T18:33:22.187Z,8.60
2022-11-06T18:35:23.847Z,8.70
2022-11-06T18:37:25.920Z,8.70
2022-11-06T18:39:27.629Z,8.70
2022-11-06T18:41:30.017Z,8.70
2022-11-06T18:43:31.591Z,8.60
2022-11-06T18:45:33.385Z,8.60
2022-11-06T18:47:34.999Z,8.60
2022-11-06T18:49:36.664Z,8.60
2022-11-06T18:51:39.688Z,8.60
2022-11-06T18:53:41.778Z,8.60
2022-11-06T18:55:45.034Z,8.60
2022-11-06T18:57:46.646Z,8.60
2022-11-06T18:59:48.270Z,8.60
2022-11-06T19:01:50.349Z,8.60
2022-11-06T19:03:52.058Z,8.70
2022-11-06T19:05:53.736Z,8.70
2022-11-06T19:08:00.102Z,8.80
2022-11-06T19:10:02.211Z,8.70
2022-11-06T19:12:03.935Z,8.70
2022-11-06T19:14:05.647Z,8.90
2022-11-06T19:16:07.549Z,8.90
2022-11-06T19:18:09.227Z,9.00
2022-11-06T19:20:14.812Z,9.10
2022-11-06T19:22:17.038Z,9.10
2022-11-06T19:24:18.998Z,9.20
2022-11-06T19:26:36.408Z,9.30
2022-11-06T19:28:38.353Z,9.20
2022-11-06T19:30:40.131Z,9.30
2022-11-06T19:32:42.135Z,9.20
2022-11-06T19:34:43.762Z,9.30
2022-11-06T19:36:45.375Z,9.40
2022-11-06T19:38:46.990Z,9.30
2022-11-06T19:40:55.419Z,9.20
2022-11-06T19:42:57.966Z,9.20
2022-11-06T19:45:00.212Z,9.30
2022-11-06T19:47:01.811Z,9.30
2022-11-06T19:49:07.244Z,9.20
2022-11-06T19:51:09.903Z,9.10
2022-11-06T19:53:11.907Z,8.90
2022-11-06T19:55:26.416Z,9.00
2022-11-06T19:57:30.536Z,9.00
2022-11-06T19:59:32.255Z,9.30
2022-11-06T20:01:34.691Z,9.30
2022-11-06T20:03:36.847Z,9.40
2022-11-06T20:05:39.868Z,9.30
2022-11-06T20:07:42.611Z,9.20
2022-11-06T20:09:44.241Z,9.30
2022-11-06T20:11:46.220Z,9.20
2022-11-06T20:13:47.907Z,9.10
2022-11-06T20:15:49.585Z,9.00
2022-11-06T20:17:51.264Z,9.00
2022-11-06T20:19:53.019Z,9.00
2022-11-06T20:21:54.715Z,8.90
2022-11-06T20:23:57.161Z,8.90
2022-11-06T20:25:59.013Z,8.80
2022-11-06T20:28:00.609Z,8.80
2022-11-06T20:30:02.855Z,8.80
2022-11-06T20:32:05.225Z,8.80
2022-11-06T20:34:07.093Z,8.70
2022-11-06T20:36:13.377Z,8.70
2022-11-06T20:38:15.212Z,8.80
2022-11-06T20:40:16.946Z,8.90
2022-11-06T20:42:18.726Z,8.80
2022-11-06T20:44:20.388Z,8.90
2022-11-06T20:46:22.363Z,8.80
2022-11-06T20:48:23.945Z,8.80
2022-11-06T20:50:25.525Z,8.80
2022-11-06T20:52:27.138Z,8.80
2022-11-06T20:54:28.799Z,8.80
2022-11-06T20:56:30.499Z,8.80
2022-11-06T20:58:32.590Z,8.80
2022-11-06T21:00:34.302Z,8.80
2022-11-06T21:02:36.042Z,8.70
2022-11-06T21:04:37.996Z,8.70
2022-11-06T21:06:39.745Z,8.60
2022-11-06T21:08:41.820Z,8.50
2022-11-06T21:10:52.743Z,8.50
2022-11-06T21:12:54.292Z,8.70
2022-11-06T21:14:56.095Z,8.70
2022-11-06T21:16:57.738Z,8.70
2022-11-06T21:19:00.005Z,8.70
2022-11-06T21:21:01.997Z,8.70
2022-11-06T21:23:07.007Z,8.70
2022-11-06T21:25:08.835Z,8.70
2022-11-06T21:27:10.780Z,8.70
2022-11-06T21:29:12.485Z,8.80
2022-11-06T21:31:16.377Z,8.70
2022-11-06T21:33:18.306Z,8.70
2022-11-06T21:35:20.174Z,8.80
2022-11-06T21:37:32.850Z,8.80
2022-11-06T21:39:36.479Z,8.80
2022-11-06T21:41:38.629Z,8.80
2022-11-06T21:43:40.553Z,8.80
2022-11-06T21:45:42.189Z,8.80
2022-11-06T21:47:43.976Z,8.80
2022-11-06T21:49:54.110Z,8.80
2022-11-06T21:52:15.920Z,8.70
2022-11-06T21:54:36.089Z,8.70
2022-11-06T21:56:38.616Z,8.60
2022-11-06T21:58:40.892Z,8.60
2022-11-06T22:00:42.624Z,8.60
2022-11-06T22:02:44.571Z,8.60
2022-11-06T22:04:46.724Z,8.60
2022-11-06T22:06:49.545Z,8.60
2022-11-06T22:08:52.294Z,8.50
2022-11-06T22:10:54.396Z,8.60
2022-11-06T22:12:56.607Z,8.60
2022-11-06T22:14:58.249Z,8.60
2022-11-06T22:17:00.016Z,8.60
2022-11-06T22:19:01.836Z,8.70
2022-11-06T22:21:08.609Z,8.80
2022-11-06T22:23:11.384Z,8.80
2022-11-06T22:25:15.405Z,8.80
2022-11-06T22:27:17.203Z,8.80
2022-11-06T22:29:20.889Z,8.80
2022-11-06T22:31:22.978Z,8.80
2022-11-06T22:33:24.620Z,8.90
2022-11-06T22:35:26.298Z,8.90
2022-11-06T22:37:29.162Z,8.90
2022-11-06T22:39:30.909Z,9.00
2022-11-06T22:41:33.082Z,9.00
2022-11-06T22:43:35.546Z,9.00
2022-11-06T22:45:37.573Z,8.90
2022-11-06T22:47:39.492Z,8.90
2022-11-06T22:49:41.249Z,8.90
2022-11-06T22:51:43.002Z,8.80
2022-11-06T22:53:44.693Z,8.90
2022-11-06T22:55:47.513Z,9.00
2022-11-06T22:57:49.306Z,9.00
2022-11-06T22:59:53.585Z,9.10
2022-11-06T23:01:58.899Z,9.20
2022-11-06T23:04:04.872Z,9.20
2022-11-06T23:06:07.954Z,9.30
2022-11-06T23:08:09.596Z,9.40
2022-11-06T23:10:11.373Z,9.70
2022-11-06T23:12:13.828Z,9.80
2022-11-06T23:14:15.549Z,10.00
2022-11-06T23:16:18.319Z,10.00
2022-11-06T23:18:19.974Z,10.00
2022-11-06T23:20:21.686Z,9.90
2022-11-06T23:22:38.636Z,9.80
2022-11-06T23:24:40.340Z,9.80
2022-11-06T23:26:43.002Z,9.80
2022-11-06T23:28:44.966Z,9.90
2022-11-06T23:30:46.666Z,9.90
2022-11-06T23:32:48.306Z,9.90
2022-11-06T23:34:50.832Z,9.70
2022-11-06T23:36:52.458Z,9.60
2022-11-06T23:38:54.441Z,9.50
2022-11-06T23:40:56.046Z,9.50
2022-11-06T23:42:57.686Z,9.60
2022-11-06T23:45:17.954Z,9.70
2022-11-06T23:47:19.555Z,10.10
2022-11-06T23:49:21.279Z,10.10
2022-11-06T23:51:23.476Z,10.00
2022-11-06T23:53:25.115Z,9.90
2022-11-06T23:55:26.708Z,9.70
2022-11-06T23:57:28.330Z,9.60
2022-11-06T23:59:29.958Z,9.60
